Time,TemperatureF,DewpointF,PressureIn,WindDirection,WindDirectionDegrees,WindSpeedMPH,WindSpeedGustMPH,Humidity,HourlyPrecipIn,Conditions,Clouds,dailyrainin,SoftwareType,DateUTC
2017-04-24 00:02:00,58.4,53.0,29.90,NW,322,0.0,4.0,81,0.00,,,0.00,weatherlink.com 1.10,2017-04-24 05:02:00,
2017-04-24 00:17:00,58.3,53.0,29.90,ENE,64,0.0,6.0,81,0.00,,,0.00,weatherlink.com 1.10,2017-04-24 05:17:00,
2017-04-24 00:32:00,58.3,53.0,29.90,NNW,328,0.0,3.0,81,0.00,,,0.00,weatherlink.com 1.10,2017-04-24 05:32:00,
2017-04-24 00:47:00,58.3,53.0,29.89,NW,325,0.0,5.0,82,0.00,,,0.00,weatherlink.com 1.10,2017-04-24 05:47:00,
2017-04-24 01:02:00,58.1,53.0,29.88,West,280,0.0,3.0,82,0.00,,,0.00,weatherlink.com 1.10,2017-04-24 06:02:00,
2017-04-24 01:17:00,57.9,52.0,29.87,WNW,283,0.0,3.0,82,0.00,,,0.00,weatherlink.com 1.10,2017-04-24 06:17:00,
2017-04-24 01:32:00,57.7,53.0,29.87,SSE,166,0.0,6.0,83,0.00,,,0.00,weatherlink.com 1.10,2017-04-24 06:32:00,
2017-04-24 01:47:00,57.6,53.0,29.86,SW,236,0.0,3.0,83,0.00,,,0.00,weatherlink.com 1.10,2017-04-24 06:47:00,
2017-04-24 02:02:00,57.4,52.0,29.86,West,271,0.0,4.0,83,0.00,,,0.00,weatherlink.com 1.10,2017-04-24 07:02:00,
2017-04-24 02:17:00,57.2,52.0,29.86,South,188,0.0,7.0,83,0.00,,,0.00,weatherlink.com 1.10,2017-04-24 07:17:00,
2017-04-24 02:32:00,56.9,52.0,29.86,WSW,249,0.0,7.0,83,0.00,,,0.00,weatherlink.com 1.10,2017-04-24 07:32:00,
2017-04-24 02:47:00,56.7,52.0,29.85,NW,315,0.0,4.0,83,0.00,,,0.00,weatherlink.com 1.10,2017-04-24 07:47:00,
2017-04-24 03:02:00,56.5,51.0,29.84,NW,319,0.0,7.0,83,0.00,,,0.00,weatherlink.com 1.10,2017-04-24 08:02:00,
2017-04-24 03:17:00,56.5,51.0,29.84,NW,318,1.0,7.0,81,0.00,,,0.00,weatherlink.com 1.10,2017-04-24 08:17:00,
2017-04-24 03:32:00,56.6,51.0,29.83,NNW,330,1.0,6.0,81,0.00,,,0.00,weatherlink.com 1.10,2017-04-24 08:32:00,
2017-04-24 03:47:00,56.4,51.0,29.83,NE,47,0.0,3.0,81,0.00,,,0.00,weatherlink.com 1.10,2017-04-24 08:47:00,
2017-04-24 04:02:00,56.2,51.0,29.83,WNW,297,0.0,4.0,82,0.00,,,0.00,weatherlink.com 1.10,2017-04-24 09:02:00,
2017-04-24 04:17:00,56.2,51.0,29.83,WSW,253,0.0,3.0,83,0.00,,,0.00,weatherlink.com 1.10,2017-04-24 09:17:00,
2017-04-24 04:32:00,56.1,51.0,29.83,West,264,0.0,2.0,83,0.00,,,0.00,weatherlink.com 1.10,2017-04-24 09:32:00,
2017-04-24 04:47:00,55.9,51.0,29.83,WSW,253,0.0,2.0,84,0.00,,,0.00,weatherlink.com 1.10,2017-04-24 09:47:00,
2017-04-24 05:02:00,55.6,51.0,29.82,SW,235,0.0,2.0,85,0.00,,,0.00,weatherlink.com 1.10,2017-04-24 10:02:00,
2017-04-24 05:18:00,55.0,51.0,29.83,WSW,238,0.0,1.0,86,0.00,,,0.00,weatherlink.com 1.10,2017-04-24 10:18:00,
2017-04-24 05:33:00,55.0,51.0,29.83,WSW,253,0.0,1.0,87,0.00,,,0.00,weatherlink.com 1.10,2017-04-24 10:33:00,
2017-04-24 05:47:00,54.7,51.0,29.84,West,277,0.0,4.0,87,0.00,,,0.00,weatherlink.com 1.10,2017-04-24 10:47:00,
2017-04-24 06:03:00,54.3,51.0,29.84,West,262,0.0,3.0,88,0.00,,,0.00,weatherlink.com 1.10,2017-04-24 11:03:00,
2017-04-24 06:18:00,54.2,51.0,29.85,WNW,285,0.0,1.0,88,0.00,,,0.00,weatherlink.com 1.10,2017-04-24 11:18:00,
2017-04-24 06:33:00,54.1,51.0,29.86,SW,228,0.0,2.0,89,0.00,,,0.00,weatherlink.com 1.10,2017-04-24 11:33:00,
2017-04-24 06:48:00,54.3,51.0,29.86,NNW,328,0.0,4.0,88,0.00,,,0.00,weatherlink.com 1.10,2017-04-24 11:48:00,
2017-04-24 07:18:00,56.2,52.0,29.87,NW,319,0.0,2.0,87,0.00,,,0.00,weatherlink.com 1.10,2017-04-24 12:18:00,
2017-04-24 07:33:00,57.3,53.0,29.88,WSW,246,0.0,1.0,85,0.00,,,0.00,weatherlink.com 1.10,2017-04-24 12:33:00,
2017-04-24 07:48:00,57.9,53.0,29.89,WNW,283,0.0,4.0,84,0.00,,,0.00,weatherlink.com 1.10,2017-04-24 12:48:00,
2017-04-24 08:03:00,58.5,53.0,29.89,WNW,287,2.0,6.0,83,0.00,,,0.00,weatherlink.com 1.10,2017-04-24 13:03:00,
2017-04-24 08:18:00,59.4,54.0,29.88,NW,316,0.0,5.0,82,0.00,,,0.00,weatherlink.com 1.10,2017-04-24 13:18:00,
2017-04-24 08:33:00,59.5,54.0,29.89,NW,321,4.0,8.0,81,0.00,,,0.00,weatherlink.com 1.10,2017-04-24 13:33:00,
2017-04-24 08:48:00,60.4,54.0,29.88,West,264,4.0,9.0,79,0.00,,,0.00,weatherlink.com 1.10,2017-04-24 13:48:00,
2017-04-24 09:03:00,61.3,54.0,29.88,North,353,4.0,12.0,78,0.00,,,0.00,weatherlink.com 1.10,2017-04-24 14:03:00,
2017-04-24 09:18:00,61.9,54.0,29.88,NE,47,8.0,13.0,75,0.00,,,0.00,weatherlink.com 1.10,2017-04-24 14:18:00,
2017-04-24 09:33:00,63.4,55.0,29.88,NNW,330,4.0,10.0,73,0.00,,,0.00,weatherlink.com 1.10,2017-04-24 14:33:00,
2017-04-24 09:48:00,64.3,54.0,29.88,SSE,151,4.0,6.0,70,0.00,,,0.00,weatherlink.com 1.10,2017-04-24 14:48:00,
2017-04-24 10:03:00,65.0,55.0,29.88,WSW,239,1.0,13.0,69,0.00,,,0.00,weatherlink.com 1.10,2017-04-24 15:03:00,
2017-04-24 10:18:00,66.0,55.0,29.88,NNW,339,0.0,9.0,68,0.00,,,0.00,weatherlink.com 1.10,2017-04-24 15:18:00,
2017-04-24 10:33:00,66.4,55.0,29.88,East,101,0.0,10.0,66,0.00,,,0.00,weatherlink.com 1.10,2017-04-24 15:33:00,
2017-04-24 10:48:00,67.5,55.0,29.88,West,271,1.0,7.0,65,0.00,,,0.00,weatherlink.com 1.10,2017-04-24 15:48:00,
2017-04-24 11:03:00,68.3,54.0,29.88,North,8,11.0,11.0,60,0.00,,,0.00,weatherlink.com 1.10,2017-04-24 16:03:00,
2017-04-24 11:18:00,68.8,55.0,29.87,East,81,3.0,11.0,61,0.00,,,0.00,weatherlink.com 1.10,2017-04-24 16:18:00,
2017-04-24 11:33:00,69.3,55.0,29.86,West,274,0.0,11.0,61,0.00,,,0.00,weatherlink.com 1.10,2017-04-24 16:33:00,
2017-04-24 11:48:00,69.4,55.0,29.86,WNW,300,2.0,9.0,60,0.00,,,0.00,weatherlink.com 1.10,2017-04-24 16:48:00,
2017-04-24 12:03:00,70.2,55.0,29.86,NNW,328,5.0,11.0,58,0.00,,,0.00,weatherlink.com 1.10,2017-04-24 17:03:00,
2017-04-24 12:18:00,71.6,55.0,29.85,NW,321,6.0,11.0,57,0.00,,,0.00,weatherlink.com 1.10,2017-04-24 17:18:00,
2017-04-24 12:48:00,71.9,56.0,29.84,NE,49,7.0,13.0,58,0.00,,,0.00,weatherlink.com 1.10,2017-04-24 17:48:00,
2017-04-24 13:04:00,71.6,55.0,29.83,NE,46,5.0,12.0,57,0.00,,,0.00,weatherlink.com 1.10,2017-04-24 18:04:00,
2017-04-24 13:19:00,72.5,55.0,29.83,West,281,3.0,11.0,55,0.00,,,0.00,weatherlink.com 1.10,2017-04-24 18:19:00,
2017-04-24 13:33:00,73.0,56.0,29.83,NNE,32,3.0,8.0,55,0.00,,,0.00,weatherlink.com 1.10,2017-04-24 18:33:00,
2017-04-24 13:49:00,72.9,57.0,29.82,NW,315,9.0,12.0,57,0.00,,,0.00,weatherlink.com 1.10,2017-04-24 18:49:00,
2017-04-24 14:04:00,73.4,56.0,29.82,NNW,333,3.0,14.0,55,0.00,,,0.00,weatherlink.com 1.10,2017-04-24 19:04:00,
2017-04-24 14:19:00,73.8,57.0,29.82,NNE,19,8.0,12.0,56,0.00,,,0.00,weatherlink.com 1.10,2017-04-24 19:19:00,
2017-04-24 14:34:00,73.6,57.0,29.81,NE,36,4.0,8.0,57,0.00,,,0.00,weatherlink.com 1.10,2017-04-24 19:34:00,
2017-04-24 14:49:00,73.1,57.0,29.81,NNE,21,6.0,12.0,58,0.00,,,0.00,weatherlink.com 1.10,2017-04-24 19:49:00,
2017-04-24 15:04:00,73.4,59.0,29.80,WSW,256,2.0,11.0,60,0.00,,,0.00,weatherlink.com 1.10,2017-04-24 20:04:00,
2017-04-24 15:19:00,72.7,57.0,29.80,North,360,9.0,12.0,59,0.00,,,0.00,weatherlink.com 1.10,2017-04-24 20:19:00,
2017-04-24 15:34:00,72.3,58.0,29.80,NNW,342,0.0,10.0,61,0.00,,,0.00,weatherlink.com 1.10,2017-04-24 20:34:00,
2017-04-24 15:49:00,72.9,59.0,29.80,NNE,25,4.0,13.0,61,0.00,,,0.00,weatherlink.com 1.10,2017-04-24 20:49:00,
2017-04-24 16:04:00,73.0,59.0,29.79,NNE,30,4.0,12.0,61,0.00,,,0.00,weatherlink.com 1.10,2017-04-24 21:04:00,
2017-04-24 16:19:00,71.9,59.0,29.80,NNE,18,2.0,9.0,63,0.00,,,0.00,weatherlink.com 1.10,2017-04-24 21:19:00,
2017-04-24 16:34:00,72.0,60.0,29.80,ENE,77,1.0,10.0,65,0.00,,,0.00,weatherlink.com 1.10,2017-04-24 21:34:00,
2017-04-24 16:49:00,72.7,59.0,29.80,NNW,327,3.0,11.0,62,0.00,,,0.00,weatherlink.com 1.10,2017-04-24 21:49:00,
2017-04-24 17:04:00,71.7,59.0,29.80,NNE,27,8.0,8.0,64,0.00,,,0.00,weatherlink.com 1.10,2017-04-24 22:04:00,
2017-04-24 17:19:00,71.8,59.0,29.79,WSW,245,2.0,7.0,65,0.00,,,0.00,weatherlink.com 1.10,2017-04-24 22:19:00,
2017-04-24 17:34:00,71.2,59.0,29.79,NNE,16,1.0,11.0,65,0.00,,,0.00,weatherlink.com 1.10,2017-04-24 22:34:00,
2017-04-24 17:49:00,71.0,59.0,29.79,NE,50,0.0,7.0,66,0.00,,,0.00,weatherlink.com 1.10,2017-04-24 22:49:00,
2017-04-24 18:04:00,71.1,59.0,29.79,NW,325,2.0,7.0,65,0.00,,,0.00,weatherlink.com 1.10,2017-04-24 23:04:00,
2017-04-24 18:19:00,70.8,59.0,29.79,ENE,58,2.0,8.0,66,0.00,,,0.00,weatherlink.com 1.10,2017-04-24 23:19:00,
2017-04-24 18:34:00,70.7,59.0,29.80,WSW,256,1.0,8.0,66,0.00,,,0.00,weatherlink.com 1.10,2017-04-24 23:34:00,
2017-04-24 19:04:00,69.6,58.0,29.80,NNW,341,4.0,6.0,66,0.00,,,0.00,weatherlink.com 1.10,2017-04-25 00:04:00,
2017-04-24 19:19:00,69.0,58.0,29.80,NNE,18,2.0,4.0,68,0.00,,,0.00,weatherlink.com 1.10,2017-04-25 00:19:00,
2017-04-24 19:34:00,68.2,58.0,29.81,North,11,4.0,4.0,69,0.00,,,0.00,weatherlink.com 1.10,2017-04-25 00:34:00,
2017-04-24 19:49:00,67.5,58.0,29.81,ENE,66,1.0,5.0,71,0.00,,,0.00,weatherlink.com 1.10,2017-04-25 00:49:00,
2017-04-24 20:04:00,66.4,58.0,29.81,ENE,58,0.0,4.0,73,0.00,,,0.00,weatherlink.com 1.10,2017-04-25 01:04:00,
2017-04-24 20:19:00,65.6,57.0,29.81,NE,53,0.0,2.0,74,0.00,,,0.00,weatherlink.com 1.10,2017-04-25 01:19:00,
2017-04-24 20:34:00,64.8,57.0,29.82,NNE,20,0.0,1.0,76,0.00,,,0.00,weatherlink.com 1.10,2017-04-25 01:34:00,
2017-04-24 20:49:00,64.3,57.0,29.82,NNE,12,0.0,1.0,77,0.00,,,0.00,weatherlink.com 1.10,2017-04-25 01:49:00,
2017-04-24 21:04:00,63.5,57.0,29.82,North,350,0.0,1.0,79,0.00,,,0.00,weatherlink.com 1.10,2017-04-25 02:04:00,
2017-04-24 21:19:00,62.8,57.0,29.82,North,350,0.0,0.0,81,0.00,,,0.00,weatherlink.com 1.10,2017-04-25 02:19:00,
2017-04-24 21:34:00,61.6,56.0,29.82,North,350,0.0,0.0,83,0.00,,,0.00,weatherlink.com 1.10,2017-04-25 02:34:00,
2017-04-24 21:49:00,60.6,56.0,29.82,North,350,0.0,0.0,85,0.00,,,0.00,weatherlink.com 1.10,2017-04-25 02:49:00,